sensor_id;sensor_type;location;lat;lon;timestamp;P1;durP1;ratioP1;P2;durP2;ratioP2
69623;SDS011;56843;52.020;5.670;2023-07-24T00:01:14;3.30;;;1.20;;
69623;SDS011;56843;52.020;5.670;2023-07-24T00:02:45;2.63;;;1.00;;
69623;SDS011;56843;52.020;5.670;2023-07-24T00:04:16;4.47;;;1.40;;
69623;SDS011;56843;52.020;5.670;2023-07-24T00:05:46;3.87;;;1.17;;
69623;SDS011;56843;52.020;5.670;2023-07-24T00:07:17;6.13;;;1.37;;
69623;SDS011;56843;52.020;5.670;2023-07-24T00:08:47;3.28;;;0.95;;
69623;SDS011;56843;52.020;5.670;2023-07-24T00:10:17;3.80;;;1.30;;
69623;SDS011;56843;52.020;5.670;2023-07-24T00:11:48;4.50;;;1.40;;
69623;SDS011;56843;52.020;5.670;2023-07-24T00:13:18;4.27;;;1.40;;
69623;SDS011;56843;52.020;5.670;2023-07-24T00:14:51;4.35;;;1.50;;
69623;SDS011;56843;52.020;5.670;2023-07-24T00:16:22;4.32;;;1.52;;
69623;SDS011;56843;52.020;5.670;2023-07-24T00:17:52;4.10;;;1.45;;
69623;SDS011;56843;52.020;5.670;2023-07-24T00:19:23;3.85;;;1.42;;
69623;SDS011;56843;52.020;5.670;2023-07-24T00:20:54;3.97;;;1.77;;
69623;SDS011;56843;52.020;5.670;2023-07-24T00:22:24;4.03;;;1.47;;
69623;SDS011;56843;52.020;5.670;2023-07-24T00:23:54;4.07;;;1.40;;
69623;SDS011;56843;52.020;5.670;2023-07-24T00:25:25;4.20;;;1.57;;
69623;SDS011;56843;52.020;5.670;2023-07-24T00:26:55;3.90;;;1.60;;
69623;SDS011;56843;52.020;5.670;2023-07-24T00:28:26;3.85;;;1.50;;
69623;SDS011;56843;52.020;5.670;2023-07-24T00:29:56;4.00;;;1.43;;
69623;SDS011;56843;52.020;5.670;2023-07-24T00:31:27;4.50;;;1.70;;
69623;SDS011;56843;52.020;5.670;2023-07-24T00:32:57;4.88;;;1.75;;
69623;SDS011;56843;52.020;5.670;2023-07-24T00:34:28;4.65;;;1.60;;
69623;SDS011;56843;52.020;5.670;2023-07-24T00:35:59;4.13;;;1.40;;
69623;SDS011;56843;52.020;5.670;2023-07-24T00:37:29;3.78;;;1.63;;
69623;SDS011;56843;52.020;5.670;2023-07-24T00:39:00;4.97;;;1.93;;
69623;SDS011;56843;52.020;5.670;2023-07-24T00:40:30;3.90;;;1.60;;
69623;SDS011;56843;52.020;5.670;2023-07-24T00:42:01;3.97;;;1.53;;
69623;SDS011;56843;52.020;5.670;2023-07-24T00:43:32;4.32;;;1.70;;
69623;SDS011;56843;52.020;5.670;2023-07-24T00:45:02;3.67;;;1.40;;
69623;SDS011;56843;52.020;5.670;2023-07-24T00:46:33;3.67;;;1.63;;
69623;SDS011;56843;52.020;5.670;2023-07-24T00:48:05;4.50;;;1.95;;
69623;SDS011;56843;52.020;5.670;2023-07-24T00:49:36;4.40;;;1.80;;
69623;SDS011;56843;52.020;5.670;2023-07-24T00:51:06;5.05;;;2.03;;
69623;SDS011;56843;52.020;5.670;2023-07-24T00:52:38;4.72;;;1.90;;
69623;SDS011;56843;52.020;5.670;2023-07-24T00:54:09;4.47;;;1.70;;
69623;SDS011;56843;52.020;5.670;2023-07-24T00:55:41;4.23;;;1.60;;
69623;SDS011;56843;52.020;5.670;2023-07-24T00:57:12;6.80;;;1.80;;
69623;SDS011;56843;52.020;5.670;2023-07-24T00:58:43;4.00;;;1.30;;
69623;SDS011;56843;52.020;5.670;2023-07-24T01:03:48;4.70;;;1.55;;
69623;SDS011;56843;52.020;5.670;2023-07-24T01:05:19;5.57;;;1.60;;
69623;SDS011;56843;52.020;5.670;2023-07-24T01:06:51;3.50;;;1.20;;
69623;SDS011;56843;52.020;5.670;2023-07-24T01:08:21;5.77;;;1.50;;
69623;SDS011;56843;52.020;5.670;2023-07-24T01:09:52;4.85;;;1.70;;
69623;SDS011;56843;52.020;5.670;2023-07-24T01:13:27;3.70;;;1.20;;
69623;SDS011;56843;52.020;5.670;2023-07-24T01:15:23;3.72;;;1.17;;
69623;SDS011;56843;52.020;5.670;2023-07-24T01:16:54;4.13;;;1.38;;
69623;SDS011;56843;52.020;5.670;2023-07-24T01:18:26;3.35;;;1.20;;
69623;SDS011;56843;52.020;5.670;2023-07-24T01:19:58;3.60;;;1.25;;
69623;SDS011;56843;52.020;5.670;2023-07-24T01:21:33;5.40;;;1.20;;
69623;SDS011;56843;52.020;5.670;2023-07-24T01:23:21;3.70;;;1.10;;
69623;SDS011;56843;52.020;5.670;2023-07-24T01:25:18;3.95;;;1.23;;
69623;SDS011;56843;52.020;5.670;2023-07-24T01:27:01;6.00;;;1.30;;
69623;SDS011;56843;52.020;5.670;2023-07-24T01:28:32;8.53;;;1.17;;
69623;SDS011;56843;52.020;5.670;2023-07-24T01:30:02;5.53;;;1.40;;
69623;SDS011;56843;52.020;5.670;2023-07-24T01:31:34;4.57;;;1.10;;
69623;SDS011;56843;52.020;5.670;2023-07-24T01:33:04;4.70;;;1.27;;
69623;SDS011;56843;52.020;5.670;2023-07-24T01:34:35;3.50;;;1.15;;
69623;SDS011;56843;52.020;5.670;2023-07-24T01:36:05;3.83;;;1.40;;
69623;SDS011;56843;52.020;5.670;2023-07-24T01:37:37;4.35;;;1.40;;
69623;SDS011;56843;52.020;5.670;2023-07-24T01:39:10;4.27;;;1.40;;
69623;SDS011;56843;52.020;5.670;2023-07-24T01:40:41;4.13;;;1.37;;
69623;SDS011;56843;52.020;5.670;2023-07-24T01:42:12;3.85;;;1.30;;
69623;SDS011;56843;52.020;5.670;2023-07-24T01:43:44;3.70;;;1.13;;
69623;SDS011;56843;52.020;5.670;2023-07-24T01:45:14;3.95;;;1.20;;
69623;SDS011;56843;52.020;5.670;2023-07-24T01:46:45;3.37;;;1.20;;
69623;SDS011;56843;52.020;5.670;2023-07-24T01:48:15;3.47;;;1.13;;
69623;SDS011;56843;52.020;5.670;2023-07-24T01:49:46;3.33;;;1.10;;
69623;SDS011;56843;52.020;5.670;2023-07-24T01:51:16;4.57;;;1.25;;
69623;SDS011;56843;52.020;5.670;2023-07-24T01:52:47;3.03;;;1.17;;
69623;SDS011;56843;52.020;5.670;2023-07-24T01:54:17;3.97;;;1.30;;
69623;SDS011;56843;52.020;5.670;2023-07-24T01:55:48;5.43;;;1.30;;
69623;SDS011;56843;52.020;5.670;2023-07-24T01:57:18;3.75;;;1.50;;
69623;SDS011;56843;52.020;5.670;2023-07-24T01:58:49;3.87;;;1.40;;
69623;SDS011;56843;52.020;5.670;2023-07-24T02:00:19;4.73;;;1.70;;
69623;SDS011;56843;52.020;5.670;2023-07-24T02:01:49;3.53;;;1.35;;
69623;SDS011;56843;52.020;5.670;2023-07-24T02:03:20;5.20;;;1.60;;
69623;SDS011;56843;52.020;5.670;2023-07-24T02:04:50;4.40;;;1.57;;
69623;SDS011;56843;52.020;5.670;2023-07-24T02:06:21;5.65;;;1.80;;
69623;SDS011;56843;52.020;5.670;2023-07-24T02:07:52;4.80;;;1.73;;
69623;SDS011;56843;52.020;5.670;2023-07-24T02:09:22;4.30;;;1.60;;
69623;SDS011;56843;52.020;5.670;2023-07-24T02:10:53;4.82;;;1.80;;
69623;SDS011;56843;52.020;5.670;2023-07-24T02:12:23;4.60;;;1.67;;
69623;SDS011;56843;52.020;5.670;2023-07-24T02:13:54;6.90;;;1.73;;
69623;SDS011;56843;52.020;5.670;2023-07-24T02:15:24;5.43;;;1.70;;
69623;SDS011;56843;52.020;5.670;2023-07-24T02:16:55;4.37;;;1.67;;
69623;SDS011;56843;52.020;5.670;2023-07-24T02:18:25;6.50;;;2.00;;
69623;SDS011;56843;52.020;5.670;2023-07-24T02:19:56;4.73;;;1.67;;
69623;SDS011;56843;52.020;5.670;2023-07-24T02:21:26;5.28;;;1.80;;
69623;SDS011;56843;52.020;5.670;2023-07-24T02:22:58;4.97;;;1.80;;
69623;SDS011;56843;52.020;5.670;2023-07-24T02:24:29;5.17;;;1.67;;
69623;SDS011;56843;52.020;5.670;2023-07-24T02:26:02;5.68;;;1.88;;
69623;SDS011;56843;52.020;5.670;2023-07-24T02:27:32;4.38;;;1.73;;
69623;SDS011;56843;52.020;5.670;2023-07-24T02:29:04;4.83;;;1.83;;
69623;SDS011;56843;52.020;5.670;2023-07-24T02:30:38;5.37;;;1.73;;
69623;SDS011;56843;52.020;5.670;2023-07-24T02:32:09;5.00;;;1.60;;
69623;SDS011;56843;52.020;5.670;2023-07-24T02:33:40;5.53;;;2.10;;
69623;SDS011;56843;52.020;5.670;2023-07-24T02:35:10;7.22;;;1.83;;
69623;SDS011;56843;52.020;5.670;2023-07-24T02:36:42;5.57;;;2.00;;
69623;SDS011;56843;52.020;5.670;2023-07-24T02:38:13;4.95;;;1.80;;
69623;SDS011;56843;52.020;5.670;2023-07-24T02:39:43;5.10;;;2.00;;
69623;SDS011;56843;52.020;5.670;2023-07-24T02:41:14;5.33;;;2.37;;
69623;SDS011;56843;52.020;5.670;2023-07-24T02:42:45;5.70;;;2.40;;
69623;SDS011;56843;52.020;5.670;2023-07-24T02:44:16;5.55;;;2.28;;
69623;SDS011;56843;52.020;5.670;2023-07-24T02:45:46;5.47;;;2.37;;
69623;SDS011;56843;52.020;5.670;2023-07-24T02:47:17;6.20;;;2.17;;
69623;SDS011;56843;52.020;5.670;2023-07-24T02:48:48;5.20;;;2.00;;
69623;SDS011;56843;52.020;5.670;2023-07-24T02:50:18;5.07;;;1.90;;
69623;SDS011;56843;52.020;5.670;2023-07-24T02:51:49;6.50;;;2.20;;
69623;SDS011;56843;52.020;5.670;2023-07-24T02:53:20;7.10;;;3.28;;
69623;SDS011;56843;52.020;5.670;2023-07-24T02:54:50;8.67;;;4.60;;
69623;SDS011;56843;52.020;5.670;2023-07-24T02:56:21;6.40;;;2.80;;
69623;SDS011;56843;52.020;5.670;2023-07-24T02:57:52;6.53;;;3.00;;
69623;SDS011;56843;52.020;5.670;2023-07-24T02:59:23;5.60;;;2.30;;
69623;SDS011;56843;52.020;5.670;2023-07-24T03:00:54;5.37;;;2.10;;
69623;SDS011;56843;52.020;5.670;2023-07-24T03:02:24;6.20;;;2.30;;
69623;SDS011;56843;52.020;5.670;2023-07-24T03:03:55;6.18;;;2.17;;
69623;SDS011;56843;52.020;5.670;2023-07-24T03:05:25;6.17;;;2.10;;
69623;SDS011;56843;52.020;5.670;2023-07-24T03:06:56;5.68;;;2.13;;
69623;SDS011;56843;52.020;5.670;2023-07-24T03:08:26;7.03;;;2.10;;
69623;SDS011;56843;52.020;5.670;2023-07-24T03:09:57;8.90;;;2.10;;
69623;SDS011;56843;52.020;5.670;2023-07-24T03:11:27;6.28;;;2.20;;
69623;SDS011;56843;52.020;5.670;2023-07-24T03:12:59;5.97;;;2.25;;
69623;SDS011;56843;52.020;5.670;2023-07-24T03:14:30;6.23;;;2.20;;
69623;SDS011;56843;52.020;5.670;2023-07-24T03:16:00;5.30;;;2.03;;
69623;SDS011;56843;52.020;5.670;2023-07-24T03:17:31;5.90;;;2.40;;
69623;SDS011;56843;52.020;5.670;2023-07-24T03:19:01;7.82;;;2.25;;
69623;SDS011;56843;52.020;5.670;2023-07-24T03:20:32;6.37;;;2.50;;
69623;SDS011;56843;52.020;5.670;2023-07-24T03:22:02;5.77;;;2.17;;
69623;SDS011;56843;52.020;5.670;2023-07-24T03:23:33;5.88;;;2.28;;
69623;SDS011;56843;52.020;5.670;2023-07-24T03:25:04;6.43;;;2.58;;
69623;SDS011;56843;52.020;5.670;2023-07-24T03:26:34;7.10;;;2.50;;
69623;SDS011;56843;52.020;5.670;2023-07-24T03:28:05;7.07;;;2.20;;
69623;SDS011;56843;52.020;5.670;2023-07-24T03:29:35;5.47;;;2.10;;
69623;SDS011;56843;52.020;5.670;2023-07-24T03:31:07;11.23;;;2.60;;
69623;SDS011;56843;52.020;5.670;2023-07-24T03:32:37;6.00;;;2.47;;
69623;SDS011;56843;52.020;5.670;2023-07-24T03:34:08;7.28;;;2.80;;
69623;SDS011;56843;52.020;5.670;2023-07-24T03:35:39;6.47;;;2.75;;
69623;SDS011;56843;52.020;5.670;2023-07-24T03:37:09;6.75;;;2.65;;
69623;SDS011;56843;52.020;5.670;2023-07-24T03:38:40;7.83;;;2.70;;
69623;SDS011;56843;52.020;5.670;2023-07-24T03:40:10;5.73;;;2.33;;
69623;SDS011;56843;52.020;5.670;2023-07-24T03:41:41;5.43;;;2.40;;
69623;SDS011;56843;52.020;5.670;2023-07-24T03:43:12;6.53;;;2.60;;
69623;SDS011;56843;52.020;5.670;2023-07-24T03:44:43;5.68;;;2.40;;
69623;SDS011;56843;52.020;5.670;2023-07-24T03:46:13;6.37;;;2.37;;
69623;SDS011;56843;52.020;5.670;2023-07-24T03:47:44;6.80;;;3.10;;
69623;SDS011;56843;52.020;5.670;2023-07-24T03:49:14;8.30;;;3.17;;
69623;SDS011;56843;52.020;5.670;2023-07-24T03:50:45;7.67;;;3.10;;
69623;SDS011;56843;52.020;5.670;2023-07-24T03:52:15;6.43;;;2.97;;
69623;SDS011;56843;52.020;5.670;2023-07-24T03:53:46;6.43;;;2.67;;
69623;SDS011;56843;52.020;5.670;2023-07-24T03:55:16;7.10;;;3.20;;
69623;SDS011;56843;52.020;5.670;2023-07-24T03:56:47;6.47;;;2.50;;
69623;SDS011;56843;52.020;5.670;2023-07-24T03:58:17;10.80;;;2.70;;
69623;SDS011;56843;52.020;5.670;2023-07-24T03:59:48;8.07;;;2.93;;
69623;SDS011;56843;52.020;5.670;2023-07-24T04:01:18;6.55;;;2.60;;
69623;SDS011;56843;52.020;5.670;2023-07-24T04:02:49;6.57;;;2.63;;
69623;SDS011;56843;52.020;5.670;2023-07-24T04:04:20;7.70;;;3.07;;
69623;SDS011;56843;52.020;5.670;2023-07-24T04:05:50;7.87;;;2.70;;
69623;SDS011;56843;52.020;5.670;2023-07-24T04:07:21;6.93;;;2.83;;
69623;SDS011;56843;52.020;5.670;2023-07-24T04:08:51;5.83;;;2.60;;
69623;SDS011;56843;52.020;5.670;2023-07-24T04:10:22;6.20;;;2.90;;
69623;SDS011;56843;52.020;5.670;2023-07-24T04:11:52;5.53;;;2.30;;
69623;SDS011;56843;52.020;5.670;2023-07-24T04:13:23;8.17;;;2.63;;
69623;SDS011;56843;52.020;5.670;2023-07-24T04:14:53;9.93;;;3.80;;
69623;SDS011;56843;52.020;5.670;2023-07-24T04:16:24;6.55;;;2.70;;
69623;SDS011;56843;52.020;5.670;2023-07-24T04:17:54;8.00;;;3.40;;
69623;SDS011;56843;52.020;5.670;2023-07-24T04:19:25;8.10;;;3.20;;
69623;SDS011;56843;52.020;5.670;2023-07-24T04:20:55;6.83;;;2.40;;
69623;SDS011;56843;52.020;5.670;2023-07-24T04:22:26;10.20;;;5.78;;
69623;SDS011;56843;52.020;5.670;2023-07-24T04:23:57;7.53;;;3.40;;
69623;SDS011;56843;52.020;5.670;2023-07-24T04:25:27;7.07;;;3.07;;
69623;SDS011;56843;52.020;5.670;2023-07-24T04:26:57;6.60;;;2.63;;
69623;SDS011;56843;52.020;5.670;2023-07-24T04:28:28;7.45;;;2.75;;
69623;SDS011;56843;52.020;5.670;2023-07-24T04:29:58;7.30;;;2.90;;
69623;SDS011;56843;52.020;5.670;2023-07-24T04:31:29;6.43;;;2.57;;
69623;SDS011;56843;52.020;5.670;2023-07-24T04:32:59;6.22;;;2.83;;
69623;SDS011;56843;52.020;5.670;2023-07-24T04:34:30;7.55;;;3.30;;
69623;SDS011;56843;52.020;5.670;2023-07-24T04:36:03;6.28;;;2.58;;
69623;SDS011;56843;52.020;5.670;2023-07-24T04:37:33;8.63;;;3.03;;
69623;SDS011;56843;52.020;5.670;2023-07-24T04:39:04;6.43;;;2.60;;
69623;SDS011;56843;52.020;5.670;2023-07-24T04:40:34;6.33;;;2.70;;
69623;SDS011;56843;52.020;5.670;2023-07-24T04:42:05;7.22;;;2.65;;
69623;SDS011;56843;52.020;5.670;2023-07-24T04:43:35;6.43;;;2.53;;
69623;SDS011;56843;52.020;5.670;2023-07-24T04:45:06;6.20;;;2.80;;
69623;SDS011;56843;52.020;5.670;2023-07-24T04:46:37;7.83;;;3.00;;
69623;SDS011;56843;52.020;5.670;2023-07-24T04:48:07;6.73;;;2.80;;
69623;SDS011;56843;52.020;5.670;2023-07-24T04:49:38;6.03;;;2.63;;
69623;SDS011;56843;52.020;5.670;2023-07-24T04:51:08;7.13;;;3.00;;
69623;SDS011;56843;52.020;5.670;2023-07-24T04:52:39;7.77;;;3.03;;
69623;SDS011;56843;52.020;5.670;2023-07-24T04:54:09;7.77;;;3.13;;
69623;SDS011;56843;52.020;5.670;2023-07-24T04:55:39;6.32;;;2.80;;
69623;SDS011;56843;52.020;5.670;2023-07-24T04:57:10;7.67;;;2.73;;
69623;SDS011;56843;52.020;5.670;2023-07-24T04:58:40;7.17;;;2.90;;
69623;SDS011;56843;52.020;5.670;2023-07-24T05:00:11;7.30;;;2.88;;
69623;SDS011;56843;52.020;5.670;2023-07-24T05:01:42;7.22;;;3.55;;
69623;SDS011;56843;52.020;5.670;2023-07-24T05:03:12;6.75;;;2.80;;
69623;SDS011;56843;52.020;5.670;2023-07-24T05:04:43;6.13;;;2.67;;
69623;SDS011;56843;52.020;5.670;2023-07-24T05:06:13;6.73;;;2.80;;
69623;SDS011;56843;52.020;5.670;2023-07-24T05:07:44;8.37;;;2.93;;
69623;SDS011;56843;52.020;5.670;2023-07-24T05:09:15;7.23;;;2.87;;
69623;SDS011;56843;52.020;5.670;2023-07-24T05:10:45;9.53;;;2.77;;
69623;SDS011;56843;52.020;5.670;2023-07-24T05:12:16;7.97;;;2.90;;
69623;SDS011;56843;52.020;5.670;2023-07-24T05:13:47;9.32;;;3.17;;
69623;SDS011;56843;52.020;5.670;2023-07-24T05:15:17;7.03;;;2.97;;
69623;SDS011;56843;52.020;5.670;2023-07-24T05:16:47;8.53;;;3.27;;
69623;SDS011;56843;52.020;5.670;2023-07-24T05:18:18;7.23;;;2.90;;
69623;SDS011;56843;52.020;5.670;2023-07-24T05:19:49;7.45;;;2.78;;
69623;SDS011;56843;52.020;5.670;2023-07-24T05:21:19;6.97;;;2.73;;
69623;SDS011;56843;52.020;5.670;2023-07-24T05:22:50;7.60;;;2.90;;
69623;SDS011;56843;52.020;5.670;2023-07-24T05:24:20;6.77;;;2.87;;
69623;SDS011;56843;52.020;5.670;2023-07-24T05:25:57;6.45;;;2.70;;
69623;SDS011;56843;52.020;5.670;2023-07-24T05:27:31;7.70;;;3.10;;
69623;SDS011;56843;52.020;5.670;2023-07-24T05:29:02;7.53;;;3.13;;
69623;SDS011;56843;52.020;5.670;2023-07-24T05:30:33;6.77;;;2.87;;
69623;SDS011;56843;52.020;5.670;2023-07-24T05:32:03;7.13;;;3.30;;
69623;SDS011;56843;52.020;5.670;2023-07-24T05:33:34;9.40;;;3.00;;
69623;SDS011;56843;52.020;5.670;2023-07-24T05:35:05;7.70;;;2.97;;
69623;SDS011;56843;52.020;5.670;2023-07-24T05:36:35;7.43;;;2.90;;
69623;SDS011;56843;52.020;5.670;2023-07-24T05:38:06;8.93;;;2.67;;
69623;SDS011;56843;52.020;5.670;2023-07-24T05:39:36;14.27;;;3.00;;
69623;SDS011;56843;52.020;5.670;2023-07-24T05:41:07;9.87;;;3.20;;
69623;SDS011;56843;52.020;5.670;2023-07-24T05:42:37;10.10;;;3.30;;
69623;SDS011;56843;52.020;5.670;2023-07-24T05:44:11;12.05;;;3.03;;
69623;SDS011;56843;52.020;5.670;2023-07-24T05:45:42;9.80;;;3.23;;
69623;SDS011;56843;52.020;5.670;2023-07-24T05:47:12;10.68;;;3.13;;
69623;SDS011;56843;52.020;5.670;2023-07-24T05:48:43;19.25;;;2.67;;
69623;SDS011;56843;52.020;5.670;2023-07-24T05:50:13;10.48;;;2.58;;
69623;SDS011;56843;52.020;5.670;2023-07-24T05:51:44;8.07;;;3.07;;
69623;SDS011;56843;52.020;5.670;2023-07-24T05:53:15;10.37;;;2.70;;
69623;SDS011;56843;52.020;5.670;2023-07-24T05:54:46;7.55;;;2.72;;
69623;SDS011;56843;52.020;5.670;2023-07-24T05:56:16;9.43;;;2.70;;
69623;SDS011;56843;52.020;5.670;2023-07-24T05:57:46;12.03;;;2.37;;
69623;SDS011;56843;52.020;5.670;2023-07-24T05:59:17;8.13;;;2.53;;
69623;SDS011;56843;52.020;5.670;2023-07-24T06:00:47;7.90;;;2.00;;
69623;SDS011;56843;52.020;5.670;2023-07-24T06:02:18;6.87;;;2.23;;
69623;SDS011;56843;52.020;5.670;2023-07-24T06:03:49;6.53;;;2.80;;
69623;SDS011;56843;52.020;5.670;2023-07-24T06:05:19;8.10;;;1.83;;
69623;SDS011;56843;52.020;5.670;2023-07-24T06:06:50;6.03;;;1.92;;
69623;SDS011;56843;52.020;5.670;2023-07-24T06:08:21;7.63;;;2.55;;
69623;SDS011;56843;52.020;5.670;2023-07-24T06:09:52;7.13;;;2.50;;
69623;SDS011;56843;52.020;5.670;2023-07-24T06:11:22;4.30;;;1.70;;
69623;SDS011;56843;52.020;5.670;2023-07-24T06:12:53;7.13;;;2.55;;
69623;SDS011;56843;52.020;5.670;2023-07-24T06:14:23;10.27;;;2.00;;
69623;SDS011;56843;52.020;5.670;2023-07-24T06:15:54;9.60;;;1.63;;
69623;SDS011;56843;52.020;5.670;2023-07-24T06:17:25;7.07;;;1.75;;
69623;SDS011;56843;52.020;5.670;2023-07-24T06:18:55;7.43;;;2.33;;
69623;SDS011;56843;52.020;5.670;2023-07-24T06:20:26;5.82;;;1.98;;
69623;SDS011;56843;52.020;5.670;2023-07-24T06:21:56;9.70;;;2.33;;
69623;SDS011;56843;52.020;5.670;2023-07-24T06:23:26;6.67;;;2.20;;
69623;SDS011;56843;52.020;5.670;2023-07-24T06:24:57;4.95;;;1.45;;
69623;SDS011;56843;52.020;5.670;2023-07-24T06:26:27;5.53;;;1.63;;
69623;SDS011;56843;52.020;5.670;2023-07-24T06:27:59;5.45;;;1.73;;
69623;SDS011;56843;52.020;5.670;2023-07-24T06:29:29;6.18;;;1.85;;
69623;SDS011;56843;52.020;5.670;2023-07-24T06:31:00;6.37;;;1.80;;
69623;SDS011;56843;52.020;5.670;2023-07-24T06:32:30;6.00;;;1.53;;
69623;SDS011;56843;52.020;5.670;2023-07-24T06:34:01;4.83;;;1.73;;
69623;SDS011;56843;52.020;5.670;2023-07-24T06:35:31;4.77;;;1.60;;
69623;SDS011;56843;52.020;5.670;2023-07-24T06:37:02;3.83;;;1.30;;
69623;SDS011;56843;52.020;5.670;2023-07-24T06:38:32;6.67;;;1.30;;
69623;SDS011;56843;52.020;5.670;2023-07-24T06:40:03;4.05;;;1.40;;
69623;SDS011;56843;52.020;5.670;2023-07-24T06:41:34;4.57;;;1.30;;
69623;SDS011;56843;52.020;5.670;2023-07-24T06:43:05;4.65;;;1.70;;
69623;SDS011;56843;52.020;5.670;2023-07-24T06:44:36;6.07;;;1.50;;
69623;SDS011;56843;52.020;5.670;2023-07-24T06:46:06;5.40;;;1.60;;
69623;SDS011;56843;52.020;5.670;2023-07-24T06:47:37;4.23;;;1.20;;
69623;SDS011;56843;52.020;5.670;2023-07-24T06:49:07;4.97;;;1.33;;
69623;SDS011;56843;52.020;5.670;2023-07-24T06:50:38;6.53;;;1.88;;
69623;SDS011;56843;52.020;5.670;2023-07-24T06:52:08;6.22;;;1.40;;
69623;SDS011;56843;52.020;5.670;2023-07-24T06:53:39;5.33;;;1.43;;
69623;SDS011;56843;52.020;5.670;2023-07-24T06:55:09;6.77;;;1.63;;
69623;SDS011;56843;52.020;5.670;2023-07-24T06:56:40;5.93;;;1.20;;
69623;SDS011;56843;52.020;5.670;2023-07-24T06:58:10;6.45;;;1.35;;
69623;SDS011;56843;52.020;5.670;2023-07-24T06:59:41;5.37;;;1.50;;
69623;SDS011;56843;52.020;5.670;2023-07-24T07:01:12;5.60;;;1.63;;
69623;SDS011;56843;52.020;5.670;2023-07-24T07:02:42;5.20;;;1.30;;
69623;SDS011;56843;52.020;5.670;2023-07-24T07:04:13;6.22;;;1.90;;
69623;SDS011;56843;52.020;5.670;2023-07-24T07:05:43;4.60;;;1.37;;
69623;SDS011;56843;52.020;5.670;2023-07-24T07:07:14;7.17;;;1.67;;
69623;SDS011;56843;52.020;5.670;2023-07-24T07:08:44;7.50;;;1.70;;
69623;SDS011;56843;52.020;5.670;2023-07-24T07:10:15;8.40;;;1.65;;
69623;SDS011;56843;52.020;5.670;2023-07-24T07:11:45;6.30;;;1.60;;
69623;SDS011;56843;52.020;5.670;2023-07-24T07:13:16;5.03;;;1.70;;
69623;SDS011;56843;52.020;5.670;2023-07-24T07:14:46;7.90;;;1.50;;
69623;SDS011;56843;52.020;5.670;2023-07-24T07:16:17;4.57;;;1.52;;
69623;SDS011;56843;52.020;5.670;2023-07-24T07:17:49;5.85;;;1.50;;
69623;SDS011;56843;52.020;5.670;2023-07-24T07:19:19;7.63;;;1.80;;
69623;SDS011;56843;52.020;5.670;2023-07-24T07:20:50;4.93;;;1.50;;
69623;SDS011;56843;52.020;5.670;2023-07-24T07:22:22;5.07;;;1.60;;
69623;SDS011;56843;52.020;5.670;2023-07-24T07:23:53;3.63;;;1.40;;
69623;SDS011;56843;52.020;5.670;2023-07-24T07:25:24;12.32;;;2.00;;
69623;SDS011;56843;52.020;5.670;2023-07-24T07:26:55;5.60;;;1.50;;
69623;SDS011;56843;52.020;5.670;2023-07-24T07:28:25;4.83;;;1.50;;
69623;SDS011;56843;52.020;5.670;2023-07-24T07:29:56;4.93;;;1.50;;
69623;SDS011;56843;52.020;5.670;2023-07-24T07:31:26;5.10;;;1.63;;
69623;SDS011;56843;52.020;5.670;2023-07-24T07:32:57;8.67;;;1.70;;
69623;SDS011;56843;52.020;5.670;2023-07-24T07:34:27;5.50;;;1.60;;
69623;SDS011;56843;52.020;5.670;2023-07-24T07:35:58;6.30;;;1.57;;
69623;SDS011;56843;52.020;5.670;2023-07-24T07:37:28;5.57;;;1.70;;
69623;SDS011;56843;52.020;5.670;2023-07-24T07:38:59;4.77;;;1.70;;
69623;SDS011;56843;52.020;5.670;2023-07-24T07:40:29;5.20;;;1.87;;
69623;SDS011;56843;52.020;5.670;2023-07-24T07:42:00;5.80;;;1.88;;
69623;SDS011;56843;52.020;5.670;2023-07-24T07:43:30;5.07;;;1.73;;
69623;SDS011;56843;52.020;5.670;2023-07-24T07:45:01;4.68;;;1.50;;
69623;SDS011;56843;52.020;5.670;2023-07-24T07:46:32;4.38;;;1.27;;
69623;SDS011;56843;52.020;5.670;2023-07-24T07:48:03;4.63;;;1.60;;
69623;SDS011;56843;52.020;5.670;2023-07-24T07:49:33;5.20;;;1.60;;
69623;SDS011;56843;52.020;5.670;2023-07-24T07:51:04;4.67;;;1.20;;
69623;SDS011;56843;52.020;5.670;2023-07-24T07:52:34;4.77;;;1.47;;
69623;SDS011;56843;52.020;5.670;2023-07-24T07:54:05;5.28;;;1.52;;
69623;SDS011;56843;52.020;5.670;2023-07-24T07:55:35;6.13;;;1.67;;
69623;SDS011;56843;52.020;5.670;2023-07-24T07:57:06;5.33;;;1.80;;
69623;SDS011;56843;52.020;5.670;2023-07-24T07:58:36;6.47;;;1.77;;
69623;SDS011;56843;52.020;5.670;2023-07-24T08:00:07;5.47;;;1.73;;
69623;SDS011;56843;52.020;5.670;2023-07-24T08:01:38;5.07;;;1.63;;
69623;SDS011;56843;52.020;5.670;2023-07-24T08:03:09;5.23;;;1.90;;
69623;SDS011;56843;52.020;5.670;2023-07-24T08:04:39;5.53;;;1.50;;
69623;SDS011;56843;52.020;5.670;2023-07-24T08:06:10;4.25;;;1.40;;
69623;SDS011;56843;52.020;5.670;2023-07-24T08:07:41;5.70;;;1.80;;
69623;SDS011;56843;52.020;5.670;2023-07-24T08:09:12;5.30;;;1.77;;
69623;SDS011;56843;52.020;5.670;2023-07-24T08:10:42;5.40;;;1.70;;
69623;SDS011;56843;52.020;5.670;2023-07-24T08:12:13;4.60;;;1.55;;
69623;SDS011;56843;52.020;5.670;2023-07-24T08:13:43;4.13;;;1.70;;
69623;SDS011;56843;52.020;5.670;2023-07-24T08:15:14;4.93;;;1.60;;
69623;SDS011;56843;52.020;5.670;2023-07-24T08:16:47;4.63;;;1.70;;
69623;SDS011;56843;52.020;5.670;2023-07-24T08:18:18;5.77;;;1.90;;
69623;SDS011;56843;52.020;5.670;2023-07-24T08:19:48;4.80;;;1.90;;
69623;SDS011;56843;52.020;5.670;2023-07-24T08:21:19;4.60;;;1.57;;
69623;SDS011;56843;52.020;5.670;2023-07-24T08:22:49;4.65;;;1.58;;
69623;SDS011;56843;52.020;5.670;2023-07-24T08:24:20;4.13;;;1.50;;
69623;SDS011;56843;52.020;5.670;2023-07-24T08:25:51;4.73;;;1.70;;
69623;SDS011;56843;52.020;5.670;2023-07-24T08:27:23;4.13;;;1.70;;
69623;SDS011;56843;52.020;5.670;2023-07-24T08:28:53;4.28;;;1.67;;
69623;SDS011;56843;52.020;5.670;2023-07-24T08:30:24;4.78;;;1.63;;
69623;SDS011;56843;52.020;5.670;2023-07-24T08:31:55;4.63;;;1.43;;
69623;SDS011;56843;52.020;5.670;2023-07-24T08:33:25;4.33;;;1.40;;
69623;SDS011;56843;52.020;5.670;2023-07-24T08:34:56;5.15;;;1.67;;
69623;SDS011;56843;52.020;5.670;2023-07-24T08:36:26;7.60;;;1.60;;
69623;SDS011;56843;52.020;5.670;2023-07-24T08:37:56;4.80;;;2.00;;
69623;SDS011;56843;52.020;5.670;2023-07-24T08:39:27;5.17;;;1.60;;
69623;SDS011;56843;52.020;5.670;2023-07-24T08:41:07;5.82;;;1.83;;
69623;SDS011;56843;52.020;5.670;2023-07-24T08:42:39;4.87;;;1.90;;
69623;SDS011;56843;52.020;5.670;2023-07-24T08:44:13;5.65;;;1.90;;
69623;SDS011;56843;52.020;5.670;2023-07-24T08:45:44;4.20;;;1.50;;
69623;SDS011;56843;52.020;5.670;2023-07-24T08:47:14;6.93;;;1.87;;
69623;SDS011;56843;52.020;5.670;2023-07-24T08:48:45;4.22;;;1.48;;
69623;SDS011;56843;52.020;5.670;2023-07-24T08:50:16;4.83;;;1.77;;
69623;SDS011;56843;52.020;5.670;2023-07-24T08:51:47;5.70;;;2.22;;
69623;SDS011;56843;52.020;5.670;2023-07-24T08:53:18;4.67;;;1.80;;
69623;SDS011;56843;52.020;5.670;2023-07-24T08:54:49;5.38;;;1.77;;
69623;SDS011;56843;52.020;5.670;2023-07-24T08:56:21;4.55;;;1.70;;
69623;SDS011;56843;52.020;5.670;2023-07-24T08:57:52;5.50;;;1.70;;
69623;SDS011;56843;52.020;5.670;2023-07-24T08:59:22;5.70;;;1.80;;
69623;SDS011;56843;52.020;5.670;2023-07-24T09:00:53;5.65;;;1.60;;
69623;SDS011;56843;52.020;5.670;2023-07-24T09:02:24;4.20;;;1.65;;
69623;SDS011;56843;52.020;5.670;2023-07-24T09:03:55;7.40;;;2.13;;
69623;SDS011;56843;52.020;5.670;2023-07-24T09:05:26;4.93;;;1.98;;
69623;SDS011;56843;52.020;5.670;2023-07-24T09:06:57;4.22;;;1.63;;
69623;SDS011;56843;52.020;5.670;2023-07-24T09:08:35;4.85;;;1.77;;
69623;SDS011;56843;52.020;5.670;2023-07-24T09:10:06;5.15;;;1.60;;
69623;SDS011;56843;52.020;5.670;2023-07-24T09:11:45;5.32;;;1.63;;
69623;SDS011;56843;52.020;5.670;2023-07-24T09:13:22;6.65;;;1.67;;
69623;SDS011;56843;52.020;5.670;2023-07-24T09:15:02;6.22;;;1.77;;